createdAt,value
2023-02-08T00:00:06.061Z,14.73
2023-02-08T00:02:32.746Z,13.80
2023-02-08T00:04:59.375Z,14.40
2023-02-08T00:07:25.980Z,14.43
2023-02-08T00:09:52.636Z,13.90
2023-02-08T00:12:19.230Z,14.47
2023-02-08T00:14:45.833Z,13.70
2023-02-08T00:17:12.489Z,13.53
2023-02-08T00:19:39.099Z,13.77
2023-02-08T00:22:05.813Z,14.53
2023-02-08T00:24:32.403Z,13.90
2023-02-08T00:26:59.037Z,14.60
2023-02-08T00:29:25.649Z,13.53
2023-02-08T00:31:52.343Z,13.20
2023-02-08T00:34:19.066Z,14.17
2023-02-08T00:36:45.712Z,14.13
2023-02-08T00:39:12.294Z,13.60
2023-02-08T00:41:38.903Z,13.70
2023-02-08T00:44:05.552Z,14.73
2023-02-08T00:46:32.244Z,15.70
2023-02-08T00:48:58.840Z,14.37
2023-02-08T00:51:25.492Z,13.47
2023-02-08T00:53:52.077Z,15.53
2023-02-08T00:56:18.744Z,14.33
2023-02-08T00:58:45.356Z,14.83
2023-02-08T01:01:12.639Z,14.27
2023-02-08T01:03:41.473Z,14.13
2023-02-08T01:06:10.596Z,14.10
2023-02-08T01:08:37.507Z,13.67
2023-02-08T01:11:08.643Z,13.93
2023-02-08T01:13:36.190Z,14.37
2023-02-08T01:16:11.526Z,14.50
2023-02-08T01:18:39.430Z,14.43
2023-02-08T01:21:08.010Z,15.23
2023-02-08T01:23:35.340Z,13.40
2023-02-08T01:26:02.185Z,13.47
2023-02-08T01:28:28.846Z,13.67
2023-02-08T01:30:55.565Z,14.40
2023-02-08T01:33:22.362Z,13.50
2023-02-08T01:35:52.922Z,13.60
2023-02-08T01:38:20.248Z,14.53
2023-02-08T01:40:47.174Z,13.43
2023-02-08T01:43:22.293Z,13.40
2023-02-08T01:45:49.110Z,13.60
2023-02-08T01:48:21.694Z,13.17
2023-02-08T01:51:04.948Z,12.80
2023-02-08T01:53:34.370Z,13.07
2023-02-08T01:56:04.040Z,12.43
2023-02-08T01:58:34.318Z,13.20
2023-02-08T02:01:02.998Z,13.60
2023-02-08T02:03:29.703Z,13.80
2023-02-08T02:06:03.936Z,13.37
2023-02-08T02:08:30.888Z,13.23
2023-02-08T02:10:57.566Z,12.43
2023-02-08T02:13:26.319Z,12.43
2023-02-08T02:15:54.071Z,13.17
2023-02-08T02:18:27.518Z,13.03
2023-02-08T02:21:19.079Z,13.83
2023-02-08T02:23:48.752Z,12.63
2023-02-08T02:26:40.896Z,12.77
2023-02-08T02:29:31.785Z,11.60
2023-02-08T02:32:12.267Z,12.73
2023-02-08T02:34:57.267Z,13.27
2023-02-08T02:37:53.114Z,12.50
2023-02-08T02:40:52.184Z,13.20
2023-02-08T02:43:42.680Z,11.90
2023-02-08T02:46:26.947Z,13.37
2023-02-08T02:49:13.798Z,12.83
2023-02-08T02:52:09.507Z,13.23
2023-02-08T02:54:49.526Z,12.43
2023-02-08T02:57:22.119Z,13.20
2023-02-08T02:59:48.846Z,13.13
2023-02-08T03:02:15.657Z,13.40
2023-02-08T03:04:42.242Z,12.93
2023-02-08T03:07:17.897Z,13.60
2023-02-08T03:09:50.727Z,13.40
2023-02-08T03:12:38.827Z,13.73
2023-02-08T03:15:23.798Z,12.27
2023-02-08T03:18:32.343Z,12.90
2023-02-08T03:21:20.760Z,12.77
2023-02-08T03:24:13.194Z,13.03
2023-02-08T03:26:53.906Z,12.43
2023-02-08T03:29:33.507Z,12.13
2023-02-08T03:32:04.978Z,12.10
2023-02-08T03:34:48.372Z,13.03
2023-02-08T03:37:18.754Z,13.17
2023-02-08T03:39:49.365Z,12.63
2023-02-08T03:42:23.197Z,12.63
2023-02-08T03:45:07.366Z,12.43
2023-02-08T03:47:39.220Z,12.57
2023-02-08T03:50:11.922Z,12.90
2023-02-08T03:52:39.257Z,12.03
2023-02-08T03:55:11.980Z,12.20
2023-02-08T03:57:49.671Z,12.77
2023-02-08T04:00:18.263Z,12.20
2023-02-08T04:02:53.699Z,12.50
2023-02-08T04:05:21.395Z,13.10
2023-02-08T04:07:48.272Z,12.83
2023-02-08T04:10:15.076Z,12.37
2023-02-08T04:12:42.522Z,12.50
2023-02-08T04:15:09.803Z,12.93
2023-02-08T04:17:36.448Z,13.03
2023-02-08T04:20:03.222Z,12.70
2023-02-08T04:22:30.013Z,12.10
2023-02-08T04:24:56.615Z,12.83
2023-02-08T04:27:23.245Z,12.67
2023-02-08T04:29:49.873Z,12.60
2023-02-08T04:32:16.509Z,13.10
2023-02-08T04:34:43.217Z,12.97
2023-02-08T04:37:11.030Z,12.67
2023-02-08T04:39:38.051Z,12.90
2023-02-08T04:42:04.951Z,13.17
2023-02-08T04:44:32.808Z,12.20
2023-02-08T04:47:00.846Z,12.10
2023-02-08T04:49:27.494Z,11.80
2023-02-08T04:51:54.116Z,12.10
2023-02-08T04:54:21.312Z,11.97
2023-02-08T04:56:48.091Z,11.70
2023-02-08T04:59:14.708Z,12.77
2023-02-08T05:01:41.411Z,11.47
2023-02-08T05:04:08.132Z,13.30
2023-02-08T05:06:34.764Z,11.80
2023-02-08T05:09:01.398Z,11.60
2023-02-08T05:11:28.027Z,11.20
2023-02-08T05:13:54.692Z,12.33
2023-02-08T05:16:21.369Z,12.43
2023-02-08T05:18:47.956Z,12.97
2023-02-08T05:21:14.568Z,11.83
2023-02-08T05:23:41.180Z,12.67
2023-02-08T05:26:08.923Z,12.83
2023-02-08T05:28:36.047Z,12.03
2023-02-08T05:31:32.027Z,11.40
2023-02-08T05:33:58.676Z,11.20
2023-02-08T05:36:25.609Z,11.73
2023-02-08T05:38:53.481Z,12.23
2023-02-08T05:41:20.227Z,12.17
2023-02-08T05:43:46.970Z,12.23
2023-02-08T05:46:13.602Z,12.83
2023-02-08T05:48:40.572Z,12.20
2023-02-08T05:51:07.457Z,11.73
2023-02-08T05:53:34.467Z,12.30
2023-02-08T05:56:01.090Z,11.47
2023-02-08T05:58:28.218Z,11.67
2023-02-08T06:00:54.944Z,12.13
2023-02-08T06:03:21.746Z,11.80
2023-02-08T06:05:48.711Z,11.90
2023-02-08T06:08:15.635Z,12.43
2023-02-08T06:10:42.578Z,12.40
2023-02-08T06:13:09.348Z,12.00
2023-02-08T06:15:35.924Z,13.77
2023-02-08T06:18:03.127Z,13.10
2023-02-08T06:20:29.724Z,13.10
2023-02-08T06:22:56.441Z,12.63
2023-02-08T06:25:23.058Z,11.90
2023-02-08T06:27:49.843Z,13.30
2023-02-08T06:30:16.705Z,12.90
2023-02-08T06:32:43.339Z,13.60
2023-02-08T06:35:10.076Z,13.13
2023-02-08T06:37:36.865Z,12.67
2023-02-08T06:40:04.795Z,14.50
2023-02-08T06:42:31.750Z,13.40
2023-02-08T06:44:58.980Z,12.77
2023-02-08T06:47:26.904Z,13.30
2023-02-08T06:49:53.821Z,13.27
2023-02-08T06:52:21.430Z,14.00
2023-02-08T06:54:48.191Z,13.60
2023-02-08T06:57:14.850Z,13.30
2023-02-08T06:59:42.297Z,12.60
2023-02-08T07:02:16.378Z,13.90
2023-02-08T07:04:43.847Z,13.00
2023-02-08T07:07:12.460Z,13.40
2023-02-08T07:09:39.196Z,14.07
2023-02-08T07:12:06.140Z,13.80
2023-02-08T07:14:34.741Z,13.50
2023-02-08T07:17:02.726Z,13.33
2023-02-08T07:19:29.558Z,12.53
2023-02-08T07:21:56.745Z,13.13
2023-02-08T07:24:24.130Z,13.70
2023-02-08T07:26:50.770Z,13.27
2023-02-08T07:29:17.370Z,13.57
2023-02-08T07:31:44.023Z,12.57
2023-02-08T07:34:10.673Z,13.17
2023-02-08T07:36:37.308Z,13.33
2023-02-08T07:39:03.986Z,14.30
2023-02-08T07:41:30.653Z,14.20
2023-02-08T07:43:59.386Z,13.73
2023-02-08T07:46:26.081Z,13.47
2023-02-08T07:48:53.407Z,14.07
2023-02-08T07:51:20.090Z,13.77
2023-02-08T07:53:46.744Z,13.03
2023-02-08T07:56:13.417Z,13.57
2023-02-08T07:58:40.074Z,14.23
2023-02-08T08:01:20.985Z,14.53
2023-02-08T08:03:49.899Z,13.87
2023-02-08T08:06:16.684Z,14.27
2023-02-08T08:08:47.249Z,15.70
2023-02-08T08:11:18.367Z,14.90
2023-02-08T08:13:45.006Z,15.63
2023-02-08T08:16:11.980Z,16.63
2023-02-08T08:18:38.673Z,16.83
2023-02-08T08:21:05.763Z,17.57
2023-02-08T08:23:36.189Z,16.83
2023-02-08T08:26:21.286Z,16.07
2023-02-08T08:28:48.347Z,15.80
2023-02-08T08:31:22.201Z,16.00
2023-02-08T08:33:49.365Z,16.10
2023-02-08T08:36:16.460Z,15.47
2023-02-08T08:38:43.160Z,16.77
2023-02-08T08:41:11.787Z,16.00
2023-02-08T08:43:38.765Z,16.17
2023-02-08T08:46:09.176Z,16.07
2023-02-08T08:48:36.690Z,16.20
2023-02-08T08:51:03.887Z,16.20
2023-02-08T08:53:30.595Z,15.30
2023-02-08T08:55:57.219Z,15.33
2023-02-08T08:58:23.838Z,16.97
2023-02-08T09:00:50.564Z,16.23
2023-02-08T09:03:17.219Z,15.80
2023-02-08T09:05:43.856Z,16.27
2023-02-08T09:08:10.515Z,16.10
2023-02-08T09:10:37.123Z,16.77
2023-02-08T09:13:03.813Z,16.77
2023-02-08T09:15:30.698Z,16.53
2023-02-08T09:17:57.328Z,16.23
2023-02-08T09:20:24.193Z,15.77
2023-02-08T09:22:51.851Z,16.43
2023-02-08T09:25:18.433Z,16.57
2023-02-08T09:27:45.048Z,16.83
2023-02-08T09:30:12.651Z,16.50
2023-02-08T09:32:39.961Z,15.90
2023-02-08T09:35:09.706Z,16.10
2023-02-08T09:37:36.290Z,16.03
2023-02-08T09:40:03.370Z,16.10
2023-02-08T09:42:43.391Z,16.80
2023-02-08T09:45:23.067Z,16.77
2023-02-08T09:48:20.825Z,15.90
2023-02-08T09:50:58.721Z,15.97
2023-02-08T09:53:44.117Z,15.57
2023-02-08T09:56:15.041Z,16.20
2023-02-08T09:58:44.634Z,15.73
2023-02-08T10:01:18.903Z,15.67
2023-02-08T10:03:48.336Z,16.63
2023-02-08T10:06:17.279Z,15.50
2023-02-08T10:08:45.660Z,15.60
2023-02-08T10:11:36.964Z,17.07
2023-02-08T10:14:28.632Z,16.50
2023-02-08T10:17:21.322Z,17.03
2023-02-08T10:20:18.359Z,16.60
2023-02-08T10:23:34.245Z,16.00
2023-02-08T10:26:39.412Z,16.10
2023-02-08T10:29:39.659Z,15.97
2023-02-08T10:32:24.801Z,16.37
2023-02-08T10:35:02.158Z,15.57
2023-02-08T10:37:34.788Z,16.20
2023-02-08T10:40:27.624Z,15.57
2023-02-08T10:43:19.258Z,15.43
2023-02-08T10:45:53.700Z,15.40
2023-02-08T10:48:50.475Z,15.93
2023-02-08T10:51:21.272Z,15.70
2023-02-08T10:53:48.504Z,14.60
2023-02-08T10:56:30.143Z,14.53
2023-02-08T10:58:59.105Z,14.30
2023-02-08T11:01:27.514Z,13.63
2023-02-08T11:04:06.620Z,13.10
2023-02-08T11:06:33.425Z,13.30
2023-02-08T11:09:00.215Z,13.70
2023-02-08T11:11:29.668Z,13.73
2023-02-08T11:14:10.800Z,13.20
2023-02-08T11:16:38.364Z,12.83
2023-02-08T11:19:07.926Z,13.37
2023-02-08T11:21:38.843Z,13.90
2023-02-08T11:24:23.914Z,13.03
2023-02-08T11:26:50.549Z,13.40
2023-02-08T11:29:26.397Z,13.73
2023-02-08T11:31:59.394Z,13.57
2023-02-08T11:34:29.045Z,12.97
2023-02-08T11:36:57.363Z,13.30
2023-02-08T11:39:36.727Z,13.20
2023-02-08T11:42:04.407Z,13.37
2023-02-08T11:44:35.793Z,13.47
2023-02-08T11:47:08.154Z,13.57
2023-02-08T11:49:40.861Z,13.60
2023-02-08T11:52:20.560Z,14.03
2023-02-08T11:54:47.258Z,13.60
2023-02-08T11:57:25.171Z,14.33
2023-02-08T12:00:16.173Z,13.53
2023-02-08T12:02:43.914Z,12.77
2023-02-08T12:05:14.880Z,13.00
2023-02-08T12:08:01.455Z,12.93
2023-02-08T12:10:30.843Z,12.70
2023-02-08T12:13:40.624Z,12.73
2023-02-08T12:16:36.946Z,12.80
2023-02-08T12:19:29.631Z,13.10
2023-02-08T12:22:24.364Z,12.87
2023-02-08T12:25:28.650Z,12.70
2023-02-08T12:28:46.144Z,12.70
2023-02-08T12:31:37.040Z,13.00
2023-02-08T12:34:27.458Z,12.33
2023-02-08T12:37:44.007Z,13.00
2023-02-08T12:40:32.397Z,13.17
2023-02-08T12:43:36.533Z,14.53
2023-02-08T12:46:11.292Z,13.03
2023-02-08T12:48:52.265Z,13.40
2023-02-08T12:51:34.811Z,12.43
2023-02-08T12:54:10.754Z,12.43
2023-02-08T12:56:46.607Z,12.90
2023-02-08T12:59:34.312Z,12.97
2023-02-08T13:02:09.335Z,12.97
2023-02-08T13:04:40.975Z,12.87
2023-02-08T13:07:18.527Z,12.60
2023-02-08T13:10:20.800Z,12.97
2023-02-08T13:12:53.341Z,12.60
2023-02-08T13:15:59.002Z,13.47
2023-02-08T13:18:33.014Z,13.10
2023-02-08T13:21:07.069Z,13.27
2023-02-08T13:23:51.791Z,12.77
2023-02-08T13:26:27.791Z,13.73
2023-02-08T13:28:57.081Z,13.00
2023-02-08T13:31:31.784Z,13.53
2023-02-08T13:34:19.361Z,13.23
2023-02-08T13:36:57.374Z,13.13
2023-02-08T13:39:35.941Z,12.93
2023-02-08T13:42:05.169Z,13.50
2023-02-08T13:44:38.172Z,13.67
2023-02-08T13:47:07.391Z,13.53
2023-02-08T13:49:51.229Z,13.00
2023-02-08T13:57:54.383Z,13.03
2023-02-08T14:00:31.357Z,13.00
2023-02-08T14:03:21.377Z,13.47
2023-02-08T14:05:57.947Z,13.17
2023-02-08T14:08:36.590Z,13.13
2023-02-08T14:11:14.183Z,13.40
2023-02-08T14:14:03.078Z,12.87
2023-02-08T14:16:32.847Z,13.00
2023-02-08T14:19:02.387Z,12.77
2023-02-08T14:21:34.204Z,12.60
2023-02-08T14:24:05.147Z,12.30
2023-02-08T14:26:34.952Z,12.77
2023-02-08T14:29:04.917Z,13.23
2023-02-08T14:31:41.797Z,13.90
2023-02-08T14:34:23.395Z,13.00
2023-02-08T14:37:00.654Z,13.23
2023-02-08T14:39:29.924Z,12.70
2023-02-08T14:42:03.152Z,13.10
2023-02-08T14:44:39.067Z,13.30
2023-02-08T14:47:33.499Z,13.33
2023-02-08T14:50:21.851Z,13.57
2023-02-08T14:53:11.619Z,13.57
2023-02-08T14:55:46.041Z,12.93
2023-02-08T14:58:19.724Z,14.13
2023-02-08T15:00:46.859Z,13.70
2023-02-08T15:03:16.700Z,13.87
2023-02-08T15:06:15.764Z,13.53
2023-02-08T15:08:42.475Z,13.27
2023-02-08T15:11:21.908Z,13.37
2023-02-08T15:13:54.427Z,13.50
2023-02-08T15:16:21.853Z,13.50
2023-02-08T15:18:50.830Z,12.63
2023-02-08T15:21:21.491Z,13.60
2023-02-08T15:24:16.116Z,13.53
2023-02-08T15:26:52.313Z,13.60
2023-02-08T15:29:32.754Z,13.20
2023-02-08T15:32:16.321Z,13.80
2023-02-08T15:34:44.713Z,13.60
2023-02-08T15:37:19.484Z,13.57
2023-02-08T15:39:50.981Z,13.60
2023-02-08T15:42:24.957Z,14.30
2023-02-08T15:44:52.046Z,14.50
2023-02-08T15:47:25.510Z,15.03
2023-02-08T15:49:53.712Z,14.73
2023-02-08T15:52:23.923Z,14.73
2023-02-08T15:54:51.495Z,13.40
2023-02-08T15:57:54.670Z,14.97
2023-02-08T16:00:25.603Z,13.97
2023-02-08T16:02:59.139Z,14.33
2023-02-08T16:05:31.541Z,15.60
2023-02-08T16:07:59.025Z,15.00
2023-02-08T16:10:38.416Z,15.43
2023-02-08T16:13:13.524Z,14.67
2023-02-08T16:15:51.891Z,14.57
2023-02-08T16:18:40.638Z,16.67
2023-02-08T16:21:44.439Z,16.10
2023-02-08T16:24:11.176Z,15.47
2023-02-08T16:26:54.979Z,15.13
2023-02-08T16:29:29.809Z,15.17
2023-02-08T16:32:01.303Z,14.20
2023-02-08T16:34:29.704Z,15.57
2023-02-08T16:36:56.685Z,15.20
2023-02-08T16:39:53.772Z,16.43
2023-02-08T16:42:24.345Z,15.17
2023-02-08T16:45:06.268Z,15.87
2023-02-08T16:47:46.547Z,15.53
2023-02-08T16:50:21.868Z,14.90
2023-02-08T16:52:52.599Z,16.67
2023-02-08T16:55:26.181Z,15.33
2023-02-08T16:57:55.144Z,15.33
2023-02-08T17:00:31.921Z,15.23
2023-02-08T17:02:59.326Z,15.40
2023-02-08T17:05:29.478Z,15.77
2023-02-08T17:07:56.933Z,16.60
2023-02-08T17:10:28.889Z,15.50
2023-02-08T17:13:09.757Z,14.57
2023-02-08T17:15:44.472Z,15.13
2023-02-08T17:18:12.444Z,15.63
2023-02-08T17:20:39.669Z,15.60
2023-02-08T17:23:07.065Z,15.37
2023-02-08T17:25:34.481Z,15.60
2023-02-08T17:28:07.564Z,16.07
2023-02-08T17:30:36.096Z,15.83
2023-02-08T17:33:03.936Z,15.27
2023-02-08T17:35:31.004Z,15.63
2023-02-08T17:37:58.458Z,15.33
2023-02-08T17:40:29.610Z,15.10
2023-02-08T17:42:56.539Z,15.80
2023-02-08T17:45:23.571Z,15.23
2023-02-08T17:47:50.615Z,15.30
2023-02-08T17:50:20.940Z,15.53
2023-02-08T17:52:48.305Z,15.43
2023-02-08T17:55:16.579Z,15.07
2023-02-08T17:57:44.793Z,14.57
2023-02-08T18:00:19.893Z,15.40
2023-02-08T18:02:49.712Z,15.10
2023-02-08T18:05:19.310Z,15.60
2023-02-08T18:07:46.175Z,15.27
2023-02-08T18:10:14.336Z,15.50
2023-02-08T18:12:41.883Z,16.07
2023-02-08T18:15:11.980Z,15.63
2023-02-08T18:17:39.585Z,15.47
2023-02-08T18:20:07.336Z,15.10
2023-02-08T18:22:34.449Z,15.30
2023-02-08T18:25:01.147Z,15.30
2023-02-08T18:27:27.938Z,14.67
2023-02-08T18:29:54.899Z,15.53
2023-02-08T18:32:22.044Z,15.30
2023-02-08T18:34:49.662Z,15.33
2023-02-08T18:37:17.006Z,15.70
2023-02-08T18:39:43.770Z,15.33
2023-02-08T18:42:11.694Z,14.27
2023-02-08T18:44:38.770Z,15.47
2023-02-08T18:47:06.767Z,16.90
2023-02-08T18:49:40.286Z,18.40
2023-02-08T18:52:12.614Z,17.40
2023-02-08T18:54:39.868Z,17.50
2023-02-08T18:57:09.511Z,18.27
2023-02-08T18:59:37.060Z,18.30
2023-02-08T19:02:05.505Z,18.83
2023-02-08T19:04:37.542Z,19.30
2023-02-08T19:07:04.985Z,20.13
2023-02-08T19:09:34.048Z,19.67
2023-02-08T19:12:00.737Z,18.40
2023-02-08T19:14:27.408Z,17.03
2023-02-08T19:16:55.803Z,16.77
2023-02-08T19:19:22.488Z,15.77
2023-02-08T19:21:49.209Z,16.37
2023-02-08T19:24:15.916Z,16.27
2023-02-08T19:26:42.831Z,16.87
2023-02-08T19:29:13.496Z,16.17
2023-02-08T19:31:40.737Z,16.13
2023-02-08T19:34:07.920Z,16.03
2023-02-08T19:36:44.167Z,15.13
2023-02-08T19:39:16.441Z,16.27
2023-02-08T19:41:44.000Z,16.73
2023-02-08T19:44:13.160Z,15.83
2023-02-08T19:46:40.010Z,16.23
2023-02-08T19:49:07.752Z,15.37
2023-02-08T19:51:36.930Z,16.17
2023-02-08T19:54:07.156Z,15.90
2023-02-08T19:56:34.287Z,16.00
2023-02-08T19:59:05.679Z,16.20
2023-02-08T20:01:35.328Z,16.07
2023-02-08T20:04:02.902Z,16.50
2023-02-08T20:06:32.687Z,16.93
2023-02-08T20:09:00.557Z,15.83
2023-02-08T20:11:30.042Z,17.17
2023-02-08T20:13:58.000Z,16.73
2023-02-08T20:16:25.784Z,17.47
2023-02-08T20:18:52.702Z,16.23
2023-02-08T20:21:19.907Z,16.77
2023-02-08T20:23:47.413Z,17.43
2023-02-08T20:26:17.251Z,17.60
2023-02-08T20:28:50.487Z,16.63
2023-02-08T20:31:21.624Z,17.07
2023-02-08T20:33:48.718Z,17.87
2023-02-08T20:36:21.484Z,17.10
2023-02-08T20:38:49.070Z,16.40
2023-02-08T20:41:16.657Z,16.77
2023-02-08T20:43:45.187Z,16.70
2023-02-08T20:46:38.613Z,17.07
2023-02-08T20:49:07.255Z,17.43
2023-02-08T20:51:35.298Z,17.37
2023-02-08T20:54:03.402Z,16.27
2023-02-08T20:56:33.501Z,16.23
2023-02-08T20:59:16.391Z,16.77
2023-02-08T21:01:43.908Z,16.33
2023-02-08T21:04:12.256Z,16.00
2023-02-08T21:06:40.078Z,16.07
2023-02-08T21:09:10.966Z,16.60
2023-02-08T21:11:38.104Z,16.23
2023-02-08T21:14:05.891Z,17.30
2023-02-08T21:16:33.027Z,15.67
2023-02-08T21:19:00.117Z,16.27
2023-02-08T21:21:27.782Z,16.33
2023-02-08T21:23:56.803Z,16.03
2023-02-08T21:26:24.679Z,16.93
2023-02-08T21:28:56.245Z,19.17
2023-02-08T21:31:23.995Z,18.00
2023-02-08T21:33:52.811Z,16.73
2023-02-08T21:36:23.157Z,16.37
2023-02-08T21:38:50.110Z,16.37
2023-02-08T21:41:20.356Z,16.37
2023-02-08T21:43:48.219Z,15.87
2023-02-08T21:46:15.551Z,17.23
2023-02-08T21:49:00.836Z,15.97
2023-02-08T21:51:46.403Z,17.13
2023-02-08T21:54:39.927Z,16.73
2023-02-08T21:57:15.777Z,16.73
2023-02-08T21:59:43.277Z,17.97
2023-02-08T22:02:16.435Z,15.57
2023-02-08T22:04:46.628Z,15.87
2023-02-08T22:07:13.962Z,15.03
2023-02-08T22:09:41.632Z,16.17
2023-02-08T22:12:12.609Z,14.70
2023-02-08T22:14:39.261Z,14.77
2023-02-08T22:17:05.934Z,15.03
2023-02-08T22:19:32.851Z,15.87
2023-02-08T22:21:59.481Z,15.13
2023-02-08T22:24:26.064Z,15.20
2023-02-08T22:26:52.687Z,15.20
2023-02-08T22:29:19.988Z,15.00
2023-02-08T22:31:46.767Z,16.17
2023-02-08T22:34:13.423Z,16.17
2023-02-08T22:36:40.130Z,16.53
2023-02-08T22:39:07.103Z,14.27
2023-02-08T22:41:33.792Z,13.93
2023-02-08T22:44:00.407Z,15.17
2023-02-08T22:46:27.129Z,15.87
2023-02-08T22:48:54.571Z,13.57
2023-02-08T22:51:23.410Z,14.93
2023-02-08T22:53:50.045Z,13.80
2023-02-08T22:56:18.242Z,14.43
2023-02-08T22:58:44.875Z,14.70
2023-02-08T23:01:13.491Z,14.33
2023-02-08T23:03:40.362Z,14.23
2023-02-08T23:06:10.248Z,13.63
2023-02-08T23:08:37.187Z,15.10
2023-02-08T23:11:05.517Z,14.20
2023-02-08T23:13:33.514Z,17.07
2023-02-08T23:16:00.282Z,16.90
2023-02-08T23:18:26.991Z,14.37
2023-02-08T23:20:54.509Z,13.73
2023-02-08T23:23:21.509Z,14.50
2023-02-08T23:25:48.483Z,14.57
2023-02-08T23:28:15.285Z,14.07
2023-02-08T23:30:43.574Z,12.70
2023-02-08T23:33:10.513Z,12.30
2023-02-08T23:35:41.071Z,13.23
2023-02-08T23:38:09.055Z,13.17
2023-02-08T23:40:35.702Z,13.80
2023-02-08T23:43:02.448Z,14.20
2023-02-08T23:45:29.308Z,13.40
2023-02-08T23:47:55.919Z,14.33
2023-02-08T23:50:22.585Z,13.23
2023-02-08T23:52:49.304Z,14.20
2023-02-08T23:55:16.004Z,13.07
2023-02-08T23:57:42.668Z,12.57
